sensor_id;sensor_type;location;lat;lon;timestamp;P1;durP1;ratioP1;P2;durP2;ratioP2
3131;SDS011;62090;52.330;9.104;2024-03-29T00:01:09;2.90;;;1.30;;
3131;SDS011;62090;52.330;9.104;2024-03-29T00:03:35;2.40;;;0.80;;
3131;SDS011;62090;52.330;9.104;2024-03-29T00:06:02;1.73;;;0.90;;
3131;SDS011;62090;52.330;9.104;2024-03-29T00:08:28;5.43;;;1.23;;
3131;SDS011;62090;52.330;9.104;2024-03-29T00:10:54;4.40;;;1.07;;
3131;SDS011;62090;52.330;9.104;2024-03-29T00:13:21;2.63;;;0.97;;
3131;SDS011;62090;52.330;9.104;2024-03-29T00:15:47;2.70;;;0.90;;
3131;SDS011;62090;52.330;9.104;2024-03-29T00:18:16;4.40;;;1.00;;
3131;SDS011;62090;52.330;9.104;2024-03-29T00:20:42;3.43;;;1.23;;
3131;SDS011;62090;52.330;9.104;2024-03-29T00:23:08;3.70;;;1.00;;
3131;SDS011;62090;52.330;9.104;2024-03-29T00:25:35;4.23;;;1.10;;
3131;SDS011;62090;52.330;9.104;2024-03-29T00:28:01;4.50;;;1.23;;
3131;SDS011;62090;52.330;9.104;2024-03-29T00:30:27;5.10;;;1.17;;
3131;SDS011;62090;52.330;9.104;2024-03-29T00:32:53;6.13;;;1.43;;
3131;SDS011;62090;52.330;9.104;2024-03-29T00:35:22;2.20;;;1.00;;
3131;SDS011;62090;52.330;9.104;2024-03-29T00:37:49;4.80;;;1.10;;
3131;SDS011;62090;52.330;9.104;2024-03-29T00:40:15;6.60;;;1.07;;
3131;SDS011;62090;52.330;9.104;2024-03-29T00:42:41;4.63;;;1.20;;
3131;SDS011;62090;52.330;9.104;2024-03-29T00:45:08;3.57;;;0.97;;
3131;SDS011;62090;52.330;9.104;2024-03-29T00:47:34;7.47;;;1.23;;
3131;SDS011;62090;52.330;9.104;2024-03-29T00:50:01;4.87;;;1.20;;
3131;SDS011;62090;52.330;9.104;2024-03-29T00:52:30;6.53;;;1.40;;
3131;SDS011;62090;52.330;9.104;2024-03-29T00:54:56;5.97;;;1.00;;
3131;SDS011;62090;52.330;9.104;2024-03-29T00:57:22;8.40;;;1.00;;
3131;SDS011;62090;52.330;9.104;2024-03-29T00:59:49;6.33;;;0.90;;
3131;SDS011;62090;52.330;9.104;2024-03-29T01:02:15;7.73;;;1.60;;
3131;SDS011;62090;52.330;9.104;2024-03-29T01:04:41;3.33;;;1.10;;
3131;SDS011;62090;52.330;9.104;2024-03-29T01:07:07;3.87;;;1.40;;
3131;SDS011;62090;52.330;9.104;2024-03-29T01:09:36;4.63;;;0.80;;
3131;SDS011;62090;52.330;9.104;2024-03-29T01:12:03;4.40;;;1.27;;
3131;SDS011;62090;52.330;9.104;2024-03-29T01:14:29;8.70;;;1.30;;
3131;SDS011;62090;52.330;9.104;2024-03-29T01:16:56;5.60;;;1.00;;
3131;SDS011;62090;52.330;9.104;2024-03-29T01:19:22;4.83;;;1.13;;
3131;SDS011;62090;52.330;9.104;2024-03-29T01:21:48;6.57;;;1.47;;
3131;SDS011;62090;52.330;9.104;2024-03-29T01:24:14;3.57;;;1.03;;
3131;SDS011;62090;52.330;9.104;2024-03-29T01:26:43;4.37;;;1.33;;
3131;SDS011;62090;52.330;9.104;2024-03-29T01:29:10;8.83;;;1.20;;
3131;SDS011;62090;52.330;9.104;2024-03-29T01:31:36;6.10;;;1.17;;
3131;SDS011;62090;52.330;9.104;2024-03-29T01:34:02;3.60;;;0.93;;
3131;SDS011;62090;52.330;9.104;2024-03-29T01:36:29;4.37;;;0.90;;
3131;SDS011;62090;52.330;9.104;2024-03-29T01:38:55;4.57;;;1.10;;
3131;SDS011;62090;52.330;9.104;2024-03-29T01:41:21;2.83;;;0.90;;
3131;SDS011;62090;52.330;9.104;2024-03-29T01:43:51;3.47;;;1.13;;
3131;SDS011;62090;52.330;9.104;2024-03-29T01:46:17;7.33;;;1.10;;
3131;SDS011;62090;52.330;9.104;2024-03-29T01:48:44;5.50;;;1.20;;
3131;SDS011;62090;52.330;9.104;2024-03-29T01:51:11;2.40;;;1.17;;
3131;SDS011;62090;52.330;9.104;2024-03-29T01:53:39;8.07;;;1.40;;
3131;SDS011;62090;52.330;9.104;2024-03-29T01:56:06;5.17;;;1.40;;
3131;SDS011;62090;52.330;9.104;2024-03-29T01:58:33;4.33;;;0.97;;
3131;SDS011;62090;52.330;9.104;2024-03-29T02:01:02;2.70;;;1.37;;
3131;SDS011;62090;52.330;9.104;2024-03-29T02:03:30;2.97;;;1.00;;
3131;SDS011;62090;52.330;9.104;2024-03-29T02:05:56;9.03;;;1.40;;
3131;SDS011;62090;52.330;9.104;2024-03-29T02:08:22;2.23;;;1.00;;
3131;SDS011;62090;52.330;9.104;2024-03-29T02:10:49;10.07;;;1.47;;
3131;SDS011;62090;52.330;9.104;2024-03-29T02:13:15;6.00;;;1.60;;
3131;SDS011;62090;52.330;9.104;2024-03-29T02:15:41;2.83;;;1.20;;
3131;SDS011;62090;52.330;9.104;2024-03-29T02:18:10;7.70;;;1.60;;
3131;SDS011;62090;52.330;9.104;2024-03-29T02:20:36;3.10;;;1.00;;
3131;SDS011;62090;52.330;9.104;2024-03-29T02:23:06;3.10;;;1.10;;
3131;SDS011;62090;52.330;9.104;2024-03-29T02:25:38;5.80;;;1.30;;
3131;SDS011;62090;52.330;9.104;2024-03-29T02:28:05;2.80;;;1.13;;
3131;SDS011;62090;52.330;9.104;2024-03-29T02:30:31;4.40;;;1.30;;
3131;SDS011;62090;52.330;9.104;2024-03-29T02:32:58;2.80;;;1.00;;
3131;SDS011;62090;52.330;9.104;2024-03-29T02:35:24;1.20;;;0.80;;
3131;SDS011;62090;52.330;9.104;2024-03-29T02:37:51;5.43;;;1.10;;
3131;SDS011;62090;52.330;9.104;2024-03-29T02:40:17;2.90;;;1.20;;
3131;SDS011;62090;52.330;9.104;2024-03-29T02:42:47;3.50;;;1.17;;
3131;SDS011;62090;52.330;9.104;2024-03-29T02:45:14;3.77;;;0.90;;
3131;SDS011;62090;52.330;9.104;2024-03-29T02:47:41;4.00;;;1.03;;
3131;SDS011;62090;52.330;9.104;2024-03-29T02:50:08;3.40;;;0.90;;
3131;SDS011;62090;52.330;9.104;2024-03-29T02:52:36;1.90;;;0.90;;
3131;SDS011;62090;52.330;9.104;2024-03-29T02:55:02;6.20;;;1.50;;
3131;SDS011;62090;52.330;9.104;2024-03-29T02:57:29;5.37;;;1.30;;
3131;SDS011;62090;52.330;9.104;2024-03-29T02:59:58;4.93;;;0.90;;
3131;SDS011;62090;52.330;9.104;2024-03-29T03:02:24;5.03;;;1.17;;
3131;SDS011;62090;52.330;9.104;2024-03-29T03:04:50;7.23;;;1.10;;
3131;SDS011;62090;52.330;9.104;2024-03-29T03:07:17;2.50;;;0.87;;
3131;SDS011;62090;52.330;9.104;2024-03-29T03:09:58;4.20;;;1.00;;
3131;SDS011;62090;52.330;9.104;2024-03-29T03:12:39;4.00;;;0.90;;
3131;SDS011;62090;52.330;9.104;2024-03-29T03:15:08;3.80;;;1.00;;
3131;SDS011;62090;52.330;9.104;2024-03-29T03:17:35;3.80;;;1.20;;
3131;SDS011;62090;52.330;9.104;2024-03-29T03:20:01;5.60;;;0.90;;
3131;SDS011;62090;52.330;9.104;2024-03-29T03:22:28;5.03;;;0.97;;
3131;SDS011;62090;52.330;9.104;2024-03-29T03:24:54;4.30;;;1.20;;
3131;SDS011;62090;52.330;9.104;2024-03-29T03:27:20;4.90;;;1.43;;
3131;SDS011;62090;52.330;9.104;2024-03-29T03:29:46;3.40;;;1.00;;
3131;SDS011;62090;52.330;9.104;2024-03-29T03:32:15;5.03;;;1.10;;
3131;SDS011;62090;52.330;9.104;2024-03-29T03:34:42;3.50;;;1.10;;
3131;SDS011;62090;52.330;9.104;2024-03-29T03:37:08;12.17;;;1.27;;
3131;SDS011;62090;52.330;9.104;2024-03-29T03:39:34;5.30;;;1.17;;
3131;SDS011;62090;52.330;9.104;2024-03-29T03:42:00;6.43;;;1.40;;
3131;SDS011;62090;52.330;9.104;2024-03-29T03:44:27;6.23;;;1.00;;
3131;SDS011;62090;52.330;9.104;2024-03-29T03:46:53;2.90;;;1.00;;
3131;SDS011;62090;52.330;9.104;2024-03-29T03:49:22;8.37;;;1.30;;
3131;SDS011;62090;52.330;9.104;2024-03-29T03:51:48;3.13;;;1.30;;
3131;SDS011;62090;52.330;9.104;2024-03-29T03:54:14;3.40;;;1.20;;
3131;SDS011;62090;52.330;9.104;2024-03-29T03:56:41;3.77;;;1.30;;
3131;SDS011;62090;52.330;9.104;2024-03-29T03:59:07;2.50;;;0.83;;
3131;SDS011;62090;52.330;9.104;2024-03-29T04:01:34;4.47;;;1.10;;
3131;SDS011;62090;52.330;9.104;2024-03-29T04:04:00;4.70;;;1.10;;
3131;SDS011;62090;52.330;9.104;2024-03-29T04:06:29;5.07;;;1.50;;
3131;SDS011;62090;52.330;9.104;2024-03-29T04:08:55;3.83;;;0.93;;
3131;SDS011;62090;52.330;9.104;2024-03-29T04:11:21;4.80;;;1.70;;
3131;SDS011;62090;52.330;9.104;2024-03-29T04:13:48;4.50;;;1.60;;
3131;SDS011;62090;52.330;9.104;2024-03-29T04:16:14;3.80;;;1.37;;
3131;SDS011;62090;52.330;9.104;2024-03-29T04:18:40;5.10;;;1.70;;
3131;SDS011;62090;52.330;9.104;2024-03-29T04:21:06;5.60;;;2.40;;
3131;SDS011;62090;52.330;9.104;2024-03-29T04:23:36;9.13;;;2.20;;
3131;SDS011;62090;52.330;9.104;2024-03-29T04:26:02;7.10;;;2.73;;
3131;SDS011;62090;52.330;9.104;2024-03-29T04:28:29;9.17;;;3.90;;
3131;SDS011;62090;52.330;9.104;2024-03-29T04:30:56;9.63;;;4.27;;
3131;SDS011;62090;52.330;9.104;2024-03-29T04:33:23;11.80;;;4.33;;
3131;SDS011;62090;52.330;9.104;2024-03-29T04:35:52;9.57;;;5.27;;
3131;SDS011;62090;52.330;9.104;2024-03-29T04:38:20;11.63;;;4.57;;
3131;SDS011;62090;52.330;9.104;2024-03-29T04:40:50;6.67;;;4.23;;
3131;SDS011;62090;52.330;9.104;2024-03-29T04:43:17;9.33;;;4.63;;
3131;SDS011;62090;52.330;9.104;2024-03-29T04:45:43;12.20;;;4.47;;
3131;SDS011;62090;52.330;9.104;2024-03-29T04:48:10;16.83;;;4.77;;
3131;SDS011;62090;52.330;9.104;2024-03-29T04:50:36;7.27;;;4.10;;
3131;SDS011;62090;52.330;9.104;2024-03-29T04:53:03;6.00;;;2.53;;
3131;SDS011;62090;52.330;9.104;2024-03-29T04:55:29;6.23;;;2.90;;
3131;SDS011;62090;52.330;9.104;2024-03-29T04:57:58;6.47;;;2.17;;
3131;SDS011;62090;52.330;9.104;2024-03-29T05:00:25;5.60;;;2.10;;
3131;SDS011;62090;52.330;9.104;2024-03-29T05:02:51;8.10;;;2.30;;
3131;SDS011;62090;52.330;9.104;2024-03-29T05:05:17;8.83;;;2.10;;
3131;SDS011;62090;52.330;9.104;2024-03-29T05:07:43;5.87;;;2.17;;
3131;SDS011;62090;52.330;9.104;2024-03-29T05:10:10;4.40;;;1.13;;
3131;SDS011;62090;52.330;9.104;2024-03-29T05:12:36;6.17;;;1.70;;
3131;SDS011;62090;52.330;9.104;2024-03-29T05:15:05;6.73;;;1.50;;
3131;SDS011;62090;52.330;9.104;2024-03-29T05:17:32;3.00;;;1.20;;
3131;SDS011;62090;52.330;9.104;2024-03-29T05:19:59;4.13;;;1.53;;
3131;SDS011;62090;52.330;9.104;2024-03-29T05:22:25;3.50;;;1.60;;
3131;SDS011;62090;52.330;9.104;2024-03-29T05:24:52;4.37;;;1.27;;
3131;SDS011;62090;52.330;9.104;2024-03-29T05:27:19;3.50;;;1.30;;
3131;SDS011;62090;52.330;9.104;2024-03-29T05:29:45;8.20;;;1.67;;
3131;SDS011;62090;52.330;9.104;2024-03-29T05:32:14;5.10;;;1.40;;
3131;SDS011;62090;52.330;9.104;2024-03-29T05:34:40;3.00;;;1.13;;
3131;SDS011;62090;52.330;9.104;2024-03-29T05:37:06;2.90;;;1.40;;
3131;SDS011;62090;52.330;9.104;2024-03-29T05:39:33;5.87;;;1.30;;
3131;SDS011;62090;52.330;9.104;2024-03-29T05:41:59;6.07;;;1.67;;
3131;SDS011;62090;52.330;9.104;2024-03-29T05:44:26;5.13;;;1.37;;
3131;SDS011;62090;52.330;9.104;2024-03-29T05:46:52;5.23;;;1.47;;
3131;SDS011;62090;52.330;9.104;2024-03-29T05:49:21;1.47;;;1.10;;
3131;SDS011;62090;52.330;9.104;2024-03-29T05:51:48;9.13;;;1.53;;
3131;SDS011;62090;52.330;9.104;2024-03-29T05:54:14;4.60;;;1.30;;
3131;SDS011;62090;52.330;9.104;2024-03-29T05:56:40;3.70;;;1.30;;
3131;SDS011;62090;52.330;9.104;2024-03-29T05:59:06;5.23;;;0.97;;
3131;SDS011;62090;52.330;9.104;2024-03-29T06:01:33;10.77;;;1.53;;
3131;SDS011;62090;52.330;9.104;2024-03-29T06:03:59;5.03;;;1.20;;
3131;SDS011;62090;52.330;9.104;2024-03-29T06:06:28;4.07;;;1.50;;
3131;SDS011;62090;52.330;9.104;2024-03-29T06:08:54;3.23;;;1.13;;
3131;SDS011;62090;52.330;9.104;2024-03-29T06:11:20;3.37;;;1.27;;
3131;SDS011;62090;52.330;9.104;2024-03-29T06:13:47;3.40;;;1.13;;
3131;SDS011;62090;52.330;9.104;2024-03-29T06:16:28;4.13;;;1.40;;
3131;SDS011;62090;52.330;9.104;2024-03-29T06:19:09;5.33;;;1.17;;
3131;SDS011;62090;52.330;9.104;2024-03-29T06:21:38;2.97;;;1.00;;
3131;SDS011;62090;52.330;9.104;2024-03-29T06:24:05;3.60;;;1.10;;
3131;SDS011;62090;52.330;9.104;2024-03-29T06:26:32;10.67;;;1.27;;
3131;SDS011;62090;52.330;9.104;2024-03-29T06:28:58;6.23;;;1.47;;
3131;SDS011;62090;52.330;9.104;2024-03-29T06:31:25;5.00;;;1.10;;
3131;SDS011;62090;52.330;9.104;2024-03-29T06:33:51;4.90;;;1.43;;
3131;SDS011;62090;52.330;9.104;2024-03-29T06:36:17;5.03;;;1.23;;
3131;SDS011;62090;52.330;9.104;2024-03-29T06:38:46;6.07;;;1.17;;
3131;SDS011;62090;52.330;9.104;2024-03-29T06:41:14;4.87;;;1.20;;
3131;SDS011;62090;52.330;9.104;2024-03-29T06:43:40;8.30;;;1.03;;
3131;SDS011;62090;52.330;9.104;2024-03-29T06:46:09;2.50;;;1.00;;
3131;SDS011;62090;52.330;9.104;2024-03-29T06:48:35;3.37;;;1.03;;
3131;SDS011;62090;52.330;9.104;2024-03-29T06:51:01;8.03;;;1.20;;
3131;SDS011;62090;52.330;9.104;2024-03-29T06:53:28;5.30;;;1.30;;
3131;SDS011;62090;52.330;9.104;2024-03-29T06:55:59;7.33;;;1.13;;
3131;SDS011;62090;52.330;9.104;2024-03-29T06:58:26;1.87;;;0.87;;
3131;SDS011;62090;52.330;9.104;2024-03-29T07:00:52;6.20;;;2.30;;
3131;SDS011;62090;52.330;9.104;2024-03-29T07:03:18;5.60;;;1.57;;
3131;SDS011;62090;52.330;9.104;2024-03-29T07:05:45;4.47;;;1.10;;
3131;SDS011;62090;52.330;9.104;2024-03-29T07:08:11;3.80;;;0.80;;
3131;SDS011;62090;52.330;9.104;2024-03-29T07:10:38;3.07;;;1.00;;
3131;SDS011;62090;52.330;9.104;2024-03-29T07:13:07;3.23;;;1.10;;
3131;SDS011;62090;52.330;9.104;2024-03-29T07:15:34;1.67;;;0.90;;
3131;SDS011;62090;52.330;9.104;2024-03-29T07:18:00;3.83;;;1.20;;
3131;SDS011;62090;52.330;9.104;2024-03-29T07:20:27;5.63;;;1.00;;
3131;SDS011;62090;52.330;9.104;2024-03-29T07:22:53;7.53;;;1.10;;
3131;SDS011;62090;52.330;9.104;2024-03-29T07:25:19;2.53;;;0.90;;
3131;SDS011;62090;52.330;9.104;2024-03-29T07:27:45;3.43;;;1.17;;
3131;SDS011;62090;52.330;9.104;2024-03-29T07:30:15;6.30;;;1.27;;
3131;SDS011;62090;52.330;9.104;2024-03-29T07:32:42;5.40;;;1.10;;
3131;SDS011;62090;52.330;9.104;2024-03-29T07:35:08;6.03;;;1.23;;
3131;SDS011;62090;52.330;9.104;2024-03-29T07:37:34;4.33;;;0.90;;
3131;SDS011;62090;52.330;9.104;2024-03-29T07:40:01;3.70;;;0.97;;
3131;SDS011;62090;52.330;9.104;2024-03-29T07:42:27;4.50;;;1.53;;
3131;SDS011;62090;52.330;9.104;2024-03-29T07:44:53;3.77;;;1.20;;
3131;SDS011;62090;52.330;9.104;2024-03-29T07:47:22;3.57;;;1.07;;
3131;SDS011;62090;52.330;9.104;2024-03-29T07:49:48;3.70;;;1.20;;
3131;SDS011;62090;52.330;9.104;2024-03-29T07:52:14;3.27;;;1.30;;
3131;SDS011;62090;52.330;9.104;2024-03-29T07:54:41;3.47;;;1.00;;
3131;SDS011;62090;52.330;9.104;2024-03-29T07:57:07;3.87;;;1.00;;
3131;SDS011;62090;52.330;9.104;2024-03-29T07:59:33;3.53;;;1.30;;
3131;SDS011;62090;52.330;9.104;2024-03-29T08:02:00;5.57;;;1.27;;
3131;SDS011;62090;52.330;9.104;2024-03-29T08:04:28;2.60;;;1.00;;
3131;SDS011;62090;52.330;9.104;2024-03-29T08:06:55;4.67;;;0.90;;
3131;SDS011;62090;52.330;9.104;2024-03-29T08:09:21;3.33;;;0.90;;
3131;SDS011;62090;52.330;9.104;2024-03-29T08:11:47;6.37;;;1.20;;
3131;SDS011;62090;52.330;9.104;2024-03-29T08:14:14;3.00;;;0.90;;
3131;SDS011;62090;52.330;9.104;2024-03-29T08:16:40;2.60;;;1.17;;
3131;SDS011;62090;52.330;9.104;2024-03-29T08:19:06;4.20;;;1.00;;
3131;SDS011;62090;52.330;9.104;2024-03-29T08:21:35;3.50;;;1.13;;
3131;SDS011;62090;52.330;9.104;2024-03-29T08:24:01;3.30;;;1.03;;
3131;SDS011;62090;52.330;9.104;2024-03-29T08:26:28;1.50;;;1.00;;
3131;SDS011;62090;52.330;9.104;2024-03-29T08:28:54;5.80;;;1.00;;
3131;SDS011;62090;52.330;9.104;2024-03-29T08:31:20;2.60;;;0.90;;
3131;SDS011;62090;52.330;9.104;2024-03-29T08:33:47;1.30;;;0.70;;
3131;SDS011;62090;52.330;9.104;2024-03-29T08:36:13;1.90;;;0.80;;
3131;SDS011;62090;52.330;9.104;2024-03-29T08:38:42;7.20;;;1.73;;
3131;SDS011;62090;52.330;9.104;2024-03-29T08:41:08;2.30;;;0.80;;
3131;SDS011;62090;52.330;9.104;2024-03-29T08:43:34;5.60;;;0.80;;
3131;SDS011;62090;52.330;9.104;2024-03-29T08:46:01;2.67;;;1.07;;
3131;SDS011;62090;52.330;9.104;2024-03-29T08:48:27;5.50;;;1.20;;
3131;SDS011;62090;52.330;9.104;2024-03-29T08:50:53;5.40;;;1.43;;
3131;SDS011;62090;52.330;9.104;2024-03-29T08:53:20;3.37;;;0.80;;
3131;SDS011;62090;52.330;9.104;2024-03-29T08:55:49;2.30;;;1.13;;
3131;SDS011;62090;52.330;9.104;2024-03-29T08:58:15;5.00;;;1.10;;
3131;SDS011;62090;52.330;9.104;2024-03-29T09:00:42;4.23;;;1.20;;
3131;SDS011;62090;52.330;9.104;2024-03-29T09:03:08;3.00;;;0.93;;
3131;SDS011;62090;52.330;9.104;2024-03-29T09:05:34;3.50;;;1.10;;
3131;SDS011;62090;52.330;9.104;2024-03-29T09:08:01;4.20;;;1.20;;
3131;SDS011;62090;52.330;9.104;2024-03-29T09:10:27;4.20;;;1.27;;
3131;SDS011;62090;52.330;9.104;2024-03-29T09:12:56;2.67;;;1.10;;
3131;SDS011;62090;52.330;9.104;2024-03-29T09:15:22;2.03;;;0.90;;
3131;SDS011;62090;52.330;9.104;2024-03-29T09:17:48;4.23;;;1.23;;
3131;SDS011;62090;52.330;9.104;2024-03-29T09:20:15;5.67;;;0.93;;
3131;SDS011;62090;52.330;9.104;2024-03-29T09:22:41;1.13;;;0.80;;
3131;SDS011;62090;52.330;9.104;2024-03-29T09:25:07;1.90;;;0.77;;
3131;SDS011;62090;52.330;9.104;2024-03-29T09:27:35;3.03;;;1.30;;
3131;SDS011;62090;52.330;9.104;2024-03-29T09:30:04;5.80;;;1.27;;
3131;SDS011;62090;52.330;9.104;2024-03-29T09:32:31;3.70;;;1.00;;
3131;SDS011;62090;52.330;9.104;2024-03-29T09:34:57;2.47;;;0.90;;
3131;SDS011;62090;52.330;9.104;2024-03-29T09:37:24;1.73;;;0.90;;
3131;SDS011;62090;52.330;9.104;2024-03-29T09:39:50;4.43;;;1.37;;
3131;SDS011;62090;52.330;9.104;2024-03-29T09:42:16;5.90;;;1.23;;
3131;SDS011;62090;52.330;9.104;2024-03-29T09:44:44;4.33;;;1.00;;
3131;SDS011;62090;52.330;9.104;2024-03-29T09:47:14;1.00;;;0.83;;
3131;SDS011;62090;52.330;9.104;2024-03-29T09:49:42;4.20;;;1.00;;
3131;SDS011;62090;52.330;9.104;2024-03-29T09:52:10;3.17;;;1.03;;
3131;SDS011;62090;52.330;9.104;2024-03-29T09:54:37;2.00;;;0.70;;
3131;SDS011;62090;52.330;9.104;2024-03-29T09:57:04;8.57;;;1.00;;
3131;SDS011;62090;52.330;9.104;2024-03-29T09:59:31;1.40;;;0.93;;
3131;SDS011;62090;52.330;9.104;2024-03-29T10:01:57;1.70;;;0.90;;
3131;SDS011;62090;52.330;9.104;2024-03-29T10:04:26;1.37;;;0.80;;
3131;SDS011;62090;52.330;9.104;2024-03-29T10:06:54;6.97;;;1.10;;
3131;SDS011;62090;52.330;9.104;2024-03-29T10:09:22;10.90;;;1.20;;
3131;SDS011;62090;52.330;9.104;2024-03-29T10:11:48;4.97;;;0.90;;
3131;SDS011;62090;52.330;9.104;2024-03-29T10:14:14;3.97;;;1.10;;
3131;SDS011;62090;52.330;9.104;2024-03-29T10:16:41;3.00;;;0.87;;
3131;SDS011;62090;52.330;9.104;2024-03-29T10:19:08;2.47;;;0.90;;
3131;SDS011;62090;52.330;9.104;2024-03-29T10:21:37;2.40;;;1.00;;
3131;SDS011;62090;52.330;9.104;2024-03-29T10:24:10;3.63;;;1.00;;
3131;SDS011;62090;52.330;9.104;2024-03-29T10:26:37;3.37;;;0.90;;
3131;SDS011;62090;52.330;9.104;2024-03-29T10:29:04;3.00;;;1.33;;
3131;SDS011;62090;52.330;9.104;2024-03-29T10:31:33;3.73;;;1.00;;
3131;SDS011;62090;52.330;9.104;2024-03-29T10:34:02;3.43;;;0.90;;
3131;SDS011;62090;52.330;9.104;2024-03-29T10:36:30;0.90;;;0.80;;
3131;SDS011;62090;52.330;9.104;2024-03-29T10:39:01;5.40;;;1.00;;
3131;SDS011;62090;52.330;9.104;2024-03-29T10:41:29;3.53;;;0.80;;
3131;SDS011;62090;52.330;9.104;2024-03-29T10:43:56;3.53;;;0.90;;
3131;SDS011;62090;52.330;9.104;2024-03-29T10:46:25;2.10;;;0.73;;
3131;SDS011;62090;52.330;9.104;2024-03-29T10:48:51;2.10;;;0.80;;
3131;SDS011;62090;52.330;9.104;2024-03-29T10:51:17;1.77;;;0.70;;
3131;SDS011;62090;52.330;9.104;2024-03-29T10:53:44;4.10;;;1.20;;
3131;SDS011;62090;52.330;9.104;2024-03-29T10:56:14;1.43;;;0.80;;
3131;SDS011;62090;52.330;9.104;2024-03-29T10:58:41;2.97;;;1.53;;
3131;SDS011;62090;52.330;9.104;2024-03-29T11:01:14;6.37;;;1.20;;
3131;SDS011;62090;52.330;9.104;2024-03-29T11:03:44;3.80;;;1.37;;
3131;SDS011;62090;52.330;9.104;2024-03-29T11:06:14;6.47;;;1.90;;
3131;SDS011;62090;52.330;9.104;2024-03-29T11:08:43;15.60;;;5.93;;
3131;SDS011;62090;52.330;9.104;2024-03-29T11:11:15;21.07;;;7.17;;
3131;SDS011;62090;52.330;9.104;2024-03-29T11:13:44;7.27;;;2.37;;
3131;SDS011;62090;52.330;9.104;2024-03-29T11:16:13;4.30;;;1.20;;
3131;SDS011;62090;52.330;9.104;2024-03-29T11:18:41;2.43;;;0.90;;
3131;SDS011;62090;52.330;9.104;2024-03-29T11:21:08;1.93;;;1.10;;
3131;SDS011;62090;52.330;9.104;2024-03-29T11:23:36;2.00;;;0.97;;
3131;SDS011;62090;52.330;9.104;2024-03-29T11:26:02;1.77;;;1.00;;
3131;SDS011;62090;52.330;9.104;2024-03-29T11:28:32;1.40;;;0.90;;
3131;SDS011;62090;52.330;9.104;2024-03-29T11:31:00;1.77;;;0.97;;
3131;SDS011;62090;52.330;9.104;2024-03-29T11:33:27;2.70;;;0.90;;
3131;SDS011;62090;52.330;9.104;2024-03-29T11:35:55;1.60;;;0.90;;
3131;SDS011;62090;52.330;9.104;2024-03-29T11:38:22;1.23;;;0.80;;
3131;SDS011;62090;52.330;9.104;2024-03-29T11:40:54;5.80;;;1.03;;
3131;SDS011;62090;52.330;9.104;2024-03-29T11:43:26;3.13;;;0.90;;
3131;SDS011;62090;52.330;9.104;2024-03-29T11:45:54;2.50;;;0.90;;
3131;SDS011;62090;52.330;9.104;2024-03-29T11:48:23;7.13;;;1.20;;
3131;SDS011;62090;52.330;9.104;2024-03-29T11:50:52;3.07;;;0.80;;
3131;SDS011;62090;52.330;9.104;2024-03-29T11:53:18;0.90;;;0.70;;
3131;SDS011;62090;52.330;9.104;2024-03-29T11:55:44;1.90;;;0.70;;
3131;SDS011;62090;52.330;9.104;2024-03-29T11:58:11;1.40;;;0.83;;
3131;SDS011;62090;52.330;9.104;2024-03-29T12:00:38;5.83;;;0.90;;
3131;SDS011;62090;52.330;9.104;2024-03-29T12:03:07;0.93;;;0.70;;
3131;SDS011;62090;52.330;9.104;2024-03-29T12:05:33;3.13;;;0.90;;
3131;SDS011;62090;52.330;9.104;2024-03-29T12:08:00;1.17;;;0.67;;
3131;SDS011;62090;52.330;9.104;2024-03-29T12:10:26;3.40;;;0.70;;
3131;SDS011;62090;52.330;9.104;2024-03-29T12:12:55;1.10;;;0.70;;
3131;SDS011;62090;52.330;9.104;2024-03-29T12:15:23;3.40;;;0.97;;
3131;SDS011;62090;52.330;9.104;2024-03-29T12:17:53;3.10;;;0.93;;
3131;SDS011;62090;52.330;9.104;2024-03-29T12:20:22;2.60;;;0.70;;
3131;SDS011;62090;52.330;9.104;2024-03-29T12:22:48;1.50;;;0.70;;
3131;SDS011;62090;52.330;9.104;2024-03-29T12:25:15;3.73;;;0.80;;
3131;SDS011;62090;52.330;9.104;2024-03-29T12:27:42;1.93;;;1.00;;
3131;SDS011;62090;52.330;9.104;2024-03-29T12:30:08;3.00;;;0.70;;
3131;SDS011;62090;52.330;9.104;2024-03-29T12:32:36;4.93;;;1.10;;
3131;SDS011;62090;52.330;9.104;2024-03-29T12:35:11;1.20;;;0.80;;
3131;SDS011;62090;52.330;9.104;2024-03-29T12:37:46;3.63;;;0.90;;
3131;SDS011;62090;52.330;9.104;2024-03-29T12:40:15;1.00;;;0.80;;
3131;SDS011;62090;52.330;9.104;2024-03-29T12:42:42;4.77;;;0.97;;
3131;SDS011;62090;52.330;9.104;2024-03-29T12:45:08;4.17;;;0.90;;
3131;SDS011;62090;52.330;9.104;2024-03-29T12:47:35;4.97;;;1.97;;
3131;SDS011;62090;52.330;9.104;2024-03-29T12:50:02;2.07;;;0.70;;
3131;SDS011;62090;52.330;9.104;2024-03-29T12:52:36;0.97;;;0.63;;
3131;SDS011;62090;52.330;9.104;2024-03-29T12:55:05;1.83;;;0.80;;
3131;SDS011;62090;52.330;9.104;2024-03-29T12:57:33;1.27;;;0.77;;
3131;SDS011;62090;52.330;9.104;2024-03-29T12:59:59;2.33;;;0.70;;
3131;SDS011;62090;52.330;9.104;2024-03-29T13:02:25;2.60;;;0.87;;
3131;SDS011;62090;52.330;9.104;2024-03-29T13:04:52;1.97;;;0.70;;
3131;SDS011;62090;52.330;9.104;2024-03-29T13:07:18;1.40;;;0.80;;
3131;SDS011;62090;52.330;9.104;2024-03-29T13:09:44;3.43;;;0.90;;
3131;SDS011;62090;52.330;9.104;2024-03-29T13:12:13;2.07;;;0.70;;
3131;SDS011;62090;52.330;9.104;2024-03-29T13:14:39;1.47;;;0.80;;
3131;SDS011;62090;52.330;9.104;2024-03-29T13:17:06;1.57;;;0.67;;
3131;SDS011;62090;52.330;9.104;2024-03-29T13:19:51;2.67;;;1.03;;
3131;SDS011;62090;52.330;9.104;2024-03-29T13:22:17;2.50;;;0.80;;
3131;SDS011;62090;52.330;9.104;2024-03-29T13:24:44;3.43;;;1.07;;
3131;SDS011;62090;52.330;9.104;2024-03-29T13:27:13;2.67;;;0.90;;
3131;SDS011;62090;52.330;9.104;2024-03-29T13:29:41;3.60;;;1.30;;
3131;SDS011;62090;52.330;9.104;2024-03-29T13:32:07;1.73;;;0.90;;
3131;SDS011;62090;52.330;9.104;2024-03-29T13:34:33;2.20;;;0.90;;
3131;SDS011;62090;52.330;9.104;2024-03-29T13:36:59;1.53;;;0.80;;
3131;SDS011;62090;52.330;9.104;2024-03-29T13:39:26;1.37;;;0.70;;
3131;SDS011;62090;52.330;9.104;2024-03-29T13:41:52;1.13;;;0.70;;
3131;SDS011;62090;52.330;9.104;2024-03-29T13:44:21;1.00;;;0.70;;
3131;SDS011;62090;52.330;9.104;2024-03-29T13:46:47;2.00;;;0.90;;
3131;SDS011;62090;52.330;9.104;2024-03-29T13:49:13;3.30;;;0.80;;
3131;SDS011;62090;52.330;9.104;2024-03-29T13:51:40;1.30;;;0.90;;
3131;SDS011;62090;52.330;9.104;2024-03-29T13:54:06;1.57;;;0.80;;
3131;SDS011;62090;52.330;9.104;2024-03-29T13:56:32;5.33;;;0.90;;
3131;SDS011;62090;52.330;9.104;2024-03-29T13:58:58;8.83;;;0.80;;
3131;SDS011;62090;52.330;9.104;2024-03-29T14:01:27;4.10;;;1.47;;
3131;SDS011;62090;52.330;9.104;2024-03-29T14:03:53;2.63;;;1.00;;
3131;SDS011;62090;52.330;9.104;2024-03-29T14:06:20;3.13;;;0.97;;
3131;SDS011;62090;52.330;9.104;2024-03-29T14:08:46;1.87;;;0.70;;
3131;SDS011;62090;52.330;9.104;2024-03-29T14:11:13;6.20;;;3.03;;
3131;SDS011;62090;52.330;9.104;2024-03-29T14:13:39;2.23;;;1.00;;
3131;SDS011;62090;52.330;9.104;2024-03-29T14:16:05;3.43;;;0.83;;
3131;SDS011;62090;52.330;9.104;2024-03-29T14:18:34;1.70;;;1.10;;
3131;SDS011;62090;52.330;9.104;2024-03-29T14:21:01;1.93;;;0.90;;
3131;SDS011;62090;52.330;9.104;2024-03-29T14:23:28;1.47;;;0.87;;
3131;SDS011;62090;52.330;9.104;2024-03-29T14:25:54;2.00;;;0.90;;
3131;SDS011;62090;52.330;9.104;2024-03-29T14:28:20;2.63;;;1.33;;
3131;SDS011;62090;52.330;9.104;2024-03-29T14:30:46;2.33;;;0.87;;
3131;SDS011;62090;52.330;9.104;2024-03-29T14:33:12;2.37;;;1.00;;
3131;SDS011;62090;52.330;9.104;2024-03-29T14:35:41;2.43;;;0.90;;
3131;SDS011;62090;52.330;9.104;2024-03-29T14:38:08;2.37;;;0.80;;
3131;SDS011;62090;52.330;9.104;2024-03-29T14:40:34;1.27;;;0.90;;
3131;SDS011;62090;52.330;9.104;2024-03-29T14:43:00;0.90;;;0.70;;
3131;SDS011;62090;52.330;9.104;2024-03-29T14:45:27;1.40;;;0.93;;
3131;SDS011;62090;52.330;9.104;2024-03-29T14:47:53;1.87;;;0.90;;
3131;SDS011;62090;52.330;9.104;2024-03-29T14:50:20;2.27;;;0.90;;
3131;SDS011;62090;52.330;9.104;2024-03-29T14:52:48;2.07;;;1.10;;
3131;SDS011;62090;52.330;9.104;2024-03-29T14:55:15;6.00;;;1.00;;
3131;SDS011;62090;52.330;9.104;2024-03-29T14:57:41;1.87;;;1.20;;
3131;SDS011;62090;52.330;9.104;2024-03-29T15:00:08;3.10;;;1.07;;